Time;durP1;ratioP1;P1;durP2;ratioP2;P2;SDS_P1;SDS_P2;PMS_P1;PMS_P2;Temp;Humidity;BMP_temperature;BMP_pressure;BME280_temperature;BME280_humidity;BME280_pressure;Samples;Min_cycle;Max_cycle;Signal;HPM_P1;HPM_P2
2023/03/01 00:02:20;;;;;;;7.10;5.90;;;;;;;;;;5074043;28;20520;-50
2023/03/01 00:04:48;;;;;;;8.43;6.20;;;;;;;;;;5074550;28;20426;-50
2023/03/01 00:07:14;;;;;;;7.80;5.90;;;;;;;;;;5074326;28;20434;-50
2023/03/01 00:09:40;;;;;;;8.87;5.70;;;;;;;;;;5074452;28;20495;-51
2023/03/01 00:12:06;;;;;;;7.60;5.90;;;;;;;;;;5063609;28;20450;-49
2023/03/01 00:14:32;;;;;;;7.30;6.23;;;;;;;;;;5053977;28;20244;-50
2023/03/01 00:16:58;;;;;;;7.20;5.90;;;;;;;;;;5054287;28;20555;-50
2023/03/01 00:19:24;;;;;;;6.23;5.60;;;;;;;;;;5054207;28;20224;-50
2023/03/01 00:21:51;;;;;;;8.00;5.70;;;;;;;;;;5054338;28;20434;-49
2023/03/01 00:24:17;;;;;;;7.77;5.63;;;;;;;;;;5054052;28;20492;-50
2023/03/01 00:26:43;;;;;;;7.23;5.33;;;;;;;;;;5053883;28;20434;-49
2023/03/01 00:29:09;;;;;;;9.03;5.87;;;;;;;;;;5053964;28;20202;-50
2023/03/01 00:31:35;;;;;;;8.03;5.57;;;;;;;;;;5054192;28;20426;-50
2023/03/01 00:34:02;;;;;;;8.73;5.67;;;;;;;;;;5053760;28;20949;-49
2023/03/01 00:36:31;;;;;;;8.23;5.30;;;;;;;;;;5053857;28;20303;-50
2023/03/01 00:38:58;;;;;;;8.73;5.80;;;;;;;;;;5053454;28;20841;-49
2023/03/01 00:41:26;;;;;;;6.37;5.50;;;;;;;;;;5050159;28;20809;-48
2023/03/01 00:43:52;;;;;;;6.63;5.50;;;;;;;;;;5053762;28;20481;-50
2023/03/01 00:46:20;;;;;;;7.53;5.50;;;;;;;;;;5053766;28;20506;-50
2023/03/01 00:48:46;;;;;;;6.50;5.30;;;;;;;;;;5053762;28;20446;-51
2023/03/01 00:51:13;;;;;;;8.57;5.93;;;;;;;;;;5053569;28;20437;-51
2023/03/01 00:53:39;;;;;;;8.53;5.67;;;;;;;;;;5053865;28;20447;-50
2023/03/01 00:56:07;;;;;;;8.00;5.67;;;;;;;;;;5053762;28;20510;-51
2023/03/01 00:58:34;;;;;;;6.37;5.60;;;;;;;;;;5053587;28;20475;-52
2023/03/01 01:01:00;;;;;;;6.27;4.87;;;;;;;;;;5052991;28;20538;-52
2023/03/01 01:03:26;;;;;;;7.03;5.63;;;;;;;;;;5053308;28;20457;-52
2023/03/01 01:05:52;;;;;;;7.17;5.40;;;;;;;;;;5053689;28;20455;-52
2023/03/01 01:08:18;;;;;;;8.07;5.43;;;;;;;;;;5053336;28;20447;-52
2023/03/01 01:10:44;;;;;;;5.70;5.10;;;;;;;;;;5053427;28;20435;-52
2023/03/01 01:13:12;;;;;;;7.07;5.57;;;;;;;;;;5053126;28;20455;-52
2023/03/01 01:15:39;;;;;;;7.10;5.13;;;;;;;;;;5053321;28;20503;-52
2023/03/01 01:18:05;;;;;;;6.53;4.83;;;;;;;;;;5053099;28;20474;-52
2023/03/01 01:20:31;;;;;;;7.07;4.70;;;;;;;;;;5052993;28;20849;-52
2023/03/01 01:22:57;;;;;;;5.20;4.70;;;;;;;;;;5053067;28;20526;-53
2023/03/01 01:25:24;;;;;;;6.83;4.83;;;;;;;;;;5053015;28;20533;-51
2023/03/01 01:27:50;;;;;;;6.53;4.90;;;;;;;;;;5053257;28;20442;-53
2023/03/01 01:30:18;;;;;;;4.90;4.40;;;;;;;;;;5052912;28;20832;-50
2023/03/01 01:32:44;;;;;;;6.97;4.93;;;;;;;;;;5053138;28;21007;-52
2023/03/01 01:35:10;;;;;;;5.20;4.50;;;;;;;;;;5052620;28;20937;-52
2023/03/01 01:37:36;;;;;;;7.40;4.83;;;;;;;;;;5052891;28;20466;-51
2023/03/01 01:40:06;;;;;;;7.03;4.70;;;;;;;;;;5052582;28;20204;-52
2023/03/01 01:42:32;;;;;;;6.07;4.80;;;;;;;;;;5052776;28;20204;-52
2023/03/01 01:45:27;;;;;;;5.77;4.83;;;;;;;;;;5052542;28;20493;-51
2023/03/01 01:47:55;;;;;;;5.57;4.63;;;;;;;;;;5052715;28;20958;-52
2023/03/01 01:50:21;;;;;;;6.67;4.30;;;;;;;;;;5052644;28;20438;-53
2023/03/01 01:52:49;;;;;;;6.47;4.43;;;;;;;;;;5052585;28;20439;-52
2023/03/01 01:55:16;;;;;;;6.00;4.50;;;;;;;;;;5052371;28;20865;-52
2023/03/01 01:57:45;;;;;;;5.20;3.97;;;;;;;;;;5052478;28;20516;-52
2023/03/01 02:00:12;;;;;;;7.13;4.33;;;;;;;;;;5052456;28;20917;-52
2023/03/01 02:02:42;;;;;;;4.07;3.60;;;;;;;;;;5052494;28;20438;-52
2023/03/01 02:05:11;;;;;;;4.30;3.70;;;;;;;;;;5052207;28;20941;-52
2023/03/01 02:07:38;;;;;;;6.07;4.07;;;;;;;;;;5052417;28;20427;-53
2023/03/01 02:10:05;;;;;;;4.43;3.63;;;;;;;;;;5052244;28;20525;-52
2023/03/01 02:12:31;;;;;;;4.50;4.10;;;;;;;;;;5052114;28;20439;-52
2023/03/01 02:14:57;;;;;;;4.10;3.60;;;;;;;;;;5052172;28;20443;-52
2023/03/01 02:17:23;;;;;;;5.23;3.97;;;;;;;;;;5052018;28;20439;-52
2023/03/01 02:19:59;;;;;;;5.03;3.90;;;;;;;;;;5051938;28;20860;-53
2023/03/01 02:22:28;;;;;;;6.37;4.20;;;;;;;;;;5051903;28;20461;-53
2023/03/01 02:25:01;;;;;;;6.07;4.33;;;;;;;;;;5051992;28;20450;-52
2023/03/01 02:27:32;;;;;;;4.80;3.90;;;;;;;;;;5052037;28;20530;-53
2023/03/01 02:29:59;;;;;;;5.30;4.40;;;;;;;;;;5051876;28;20443;-53
2023/03/01 02:32:26;;;;;;;4.23;3.67;;;;;;;;;;5051776;28;20446;-53
2023/03/01 02:34:52;;;;;;;5.73;3.77;;;;;;;;;;5051870;28;20447;-53
2023/03/01 02:37:24;;;;;;;4.00;3.60;;;;;;;;;;5051626;28;20446;-53
2023/03/01 02:39:53;;;;;;;6.73;3.97;;;;;;;;;;5051779;28;21010;-53
2023/03/01 02:42:21;;;;;;;5.10;4.17;;;;;;;;;;5051560;28;20442;-53
2023/03/01 02:44:49;;;;;;;6.47;4.20;;;;;;;;;;5051506;28;20857;-51
2023/03/01 02:47:16;;;;;;;5.10;3.60;;;;;;;;;;5051367;28;20443;-53
2023/03/01 02:49:42;;;;;;;7.40;4.40;;;;;;;;;;5051557;28;20439;-53
2023/03/01 02:52:15;;;;;;;6.37;4.00;;;;;;;;;;5051537;28;20437;-53
2023/03/01 02:54:44;;;;;;;5.57;4.07;;;;;;;;;;5051391;28;20478;-52
2023/03/01 02:57:10;;;;;;;4.67;4.27;;;;;;;;;;5051410;28;20431;-53
2023/03/01 02:59:39;;;;;;;5.90;3.93;;;;;;;;;;5051467;28;20492;-53
2023/03/01 03:02:05;;;;;;;5.30;3.80;;;;;;;;;;5051401;28;20478;-53
2023/03/01 03:04:32;;;;;;;4.90;3.43;;;;;;;;;;5051265;28;20921;-53
2023/03/01 03:06:58;;;;;;;6.03;3.80;;;;;;;;;;5051231;28;20439;-52
2023/03/01 03:09:24;;;;;;;4.93;3.70;;;;;;;;;;5051172;28;20774;-52
2023/03/01 03:11:50;;;;;;;5.70;4.20;;;;;;;;;;5051396;28;20196;-52
2023/03/01 03:14:17;;;;;;;5.63;3.90;;;;;;;;;;5051079;28;20459;-52
2023/03/01 03:16:43;;;;;;;4.30;3.90;;;;;;;;;;5051172;28;20433;-52
2023/03/01 03:19:09;;;;;;;5.33;4.10;;;;;;;;;;5050878;28;20471;-52
2023/03/01 03:21:37;;;;;;;6.27;4.13;;;;;;;;;;5051325;28;20431;-52
2023/03/01 03:24:03;;;;;;;4.53;3.73;;;;;;;;;;5050685;28;20512;-51
2023/03/01 03:26:30;;;;;;;5.40;4.00;;;;;;;;;;5050878;28;20971;-52
2023/03/01 03:28:56;;;;;;;5.77;3.17;;;;;;;;;;5051266;28;20443;-53
2023/03/01 03:31:22;;;;;;;5.03;3.93;;;;;;;;;;5051106;28;20516;-52
2023/03/01 03:33:49;;;;;;;4.10;3.70;;;;;;;;;;5051016;28;20438;-52
2023/03/01 03:36:17;;;;;;;4.30;3.67;;;;;;;;;;5050960;28;20462;-52
2023/03/01 03:38:45;;;;;;;5.43;3.90;;;;;;;;;;5050920;28;20483;-52
2023/03/01 03:41:12;;;;;;;4.67;3.83;;;;;;;;;;5050937;28;20447;-51
2023/03/01 03:43:39;;;;;;;4.17;3.60;;;;;;;;;;5050844;28;20964;-50
2023/03/01 03:46:05;;;;;;;5.23;3.93;;;;;;;;;;5051193;28;20441;-52
2023/03/01 03:48:32;;;;;;;3.87;3.47;;;;;;;;;;5050775;28;20939;-52
2023/03/01 03:50:58;;;;;;;4.00;3.60;;;;;;;;;;5050845;28;21002;-52
2023/03/01 03:53:25;;;;;;;5.40;4.00;;;;;;;;;;5050822;28;20443;-52
2023/03/01 03:55:52;;;;;;;5.07;3.87;;;;;;;;;;5050794;28;20204;-52
2023/03/01 03:58:19;;;;;;;3.73;3.30;;;;;;;;;;5050852;28;20485;-52
2023/03/01 04:00:46;;;;;;;5.10;4.20;;;;;;;;;;5050861;28;20442;-52
2023/03/01 04:03:13;;;;;;;6.20;3.50;;;;;;;;;;5050659;28;20496;-52
2023/03/01 04:05:40;;;;;;;4.83;3.87;;;;;;;;;;5050869;28;20443;-52
2023/03/01 04:08:06;;;;;;;3.83;3.40;;;;;;;;;;5050822;28;20443;-52
2023/03/01 04:10:34;;;;;;;6.27;4.30;;;;;;;;;;5050763;28;20441;-52
2023/03/01 04:13:01;;;;;;;4.27;3.50;;;;;;;;;;5050534;28;21135;-52
2023/03/01 04:15:27;;;;;;;6.90;3.67;;;;;;;;;;5050533;28;20447;-52
2023/03/01 04:17:54;;;;;;;6.23;3.93;;;;;;;;;;5050658;28;20566;-52
2023/03/01 04:20:24;;;;;;;5.43;3.87;;;;;;;;;;5050647;28;20462;-52
2023/03/01 04:22:51;;;;;;;4.57;3.47;;;;;;;;;;5050778;28;20560;-52
2023/03/01 04:25:17;;;;;;;5.17;4.10;;;;;;;;;;5050514;28;20439;-52
2023/03/01 04:27:43;;;;;;;6.10;3.90;;;;;;;;;;5050574;28;20434;-52
2023/03/01 04:30:11;;;;;;;4.17;3.80;;;;;;;;;;5050591;28;20484;-52
2023/03/01 04:32:38;;;;;;;5.03;3.70;;;;;;;;;;5050770;28;20446;-52
2023/03/01 04:35:04;;;;;;;5.93;3.80;;;;;;;;;;5051274;28;20940;-53
2023/03/01 04:37:30;;;;;;;5.23;4.30;;;;;;;;;;5053971;28;20435;-53
2023/03/01 04:39:57;;;;;;;5.07;4.17;;;;;;;;;;5054189;28;20482;-53
2023/03/01 04:42:23;;;;;;;5.03;4.03;;;;;;;;;;5053994;28;20525;-53
2023/03/01 04:44:51;;;;;;;4.63;3.47;;;;;;;;;;5053902;28;20489;-53
2023/03/01 04:47:18;;;;;;;6.90;4.00;;;;;;;;;;5053801;28;20516;-53
2023/03/01 04:49:44;;;;;;;6.40;4.07;;;;;;;;;;5053700;28;20439;-53
2023/03/01 04:52:10;;;;;;;5.70;4.00;;;;;;;;;;5053642;28;20437;-53
2023/03/01 04:54:36;;;;;;;5.47;4.37;;;;;;;;;;5053924;28;20423;-53
2023/03/01 04:57:03;;;;;;;4.50;3.73;;;;;;;;;;5053689;28;20438;-53
2023/03/01 04:59:29;;;;;;;8.20;5.00;;;;;;;;;;5053373;28;20475;-53
2023/03/01 05:01:57;;;;;;;8.10;4.77;;;;;;;;;;5053682;28;20455;-52
2023/03/01 05:04:25;;;;;;;6.53;4.73;;;;;;;;;;5053376;28;20940;-53
2023/03/01 05:06:53;;;;;;;6.60;4.77;;;;;;;;;;5053885;28;20445;-53
2023/03/01 05:09:19;;;;;;;8.53;4.70;;;;;;;;;;5053438;28;20427;-53
2023/03/01 05:11:45;;;;;;;6.50;4.70;;;;;;;;;;5053336;28;20634;-53
2023/03/01 05:14:11;;;;;;;7.60;4.70;;;;;;;;;;5053061;28;20613;-53
2023/03/01 05:16:37;;;;;;;8.63;5.23;;;;;;;;;;5053432;28;20450;-53
2023/03/01 05:19:11;;;;;;;8.57;5.00;;;;;;;;;;5053040;28;21032;-53
2023/03/01 05:22:01;;;;;;;7.70;5.37;;;;;;;;;;5053685;28;20455;-53
2023/03/01 05:24:25;;;;;;;7.20;4.57;;;;;;;;;;5053062;28;20449;-53
2023/03/01 05:26:53;;;;;;;6.23;4.40;;;;;;;;;;5053415;28;20429;-53
2023/03/01 05:29:24;;;;;;;6.93;4.40;;;;;;;;;;5053335;28;20423;-53
2023/03/01 05:31:50;;;;;;;6.03;4.43;;;;;;;;;;5053306;28;20435;-53
2023/03/01 05:34:16;;;;;;;4.70;4.00;;;;;;;;;;5052791;28;20437;-53
2023/03/01 05:36:43;;;;;;;6.00;4.43;;;;;;;;;;5052944;28;20883;-53
2023/03/01 05:39:09;;;;;;;4.50;3.67;;;;;;;;;;5052765;28;20258;-53
2023/03/01 05:41:35;;;;;;;6.33;4.33;;;;;;;;;;5052962;28;20942;-53
2023/03/01 05:44:04;;;;;;;7.67;4.80;;;;;;;;;;5052485;28;20289;-53
2023/03/01 05:46:30;;;;;;;6.33;4.17;;;;;;;;;;5052485;28;20261;-53
2023/03/01 05:48:56;;;;;;;6.27;4.63;;;;;;;;;;5052707;28;20447;-53
2023/03/01 05:51:22;;;;;;;6.83;4.47;;;;;;;;;;5052484;28;20846;-53
2023/03/01 05:53:49;;;;;;;6.40;4.63;;;;;;;;;;5052694;28;20442;-53
2023/03/01 05:56:15;;;;;;;6.87;4.63;;;;;;;;;;5052436;28;20654;-53
2023/03/01 05:58:41;;;;;;;5.67;4.00;;;;;;;;;;5052820;28;20480;-54
2023/03/01 06:01:11;;;;;;;7.20;4.90;;;;;;;;;;5052495;28;20263;-53
2023/03/01 06:03:37;;;;;;;7.00;4.77;;;;;;;;;;5052440;28;20200;-53
2023/03/01 06:06:03;;;;;;;8.93;4.80;;;;;;;;;;5052461;28;20488;-53
2023/03/01 06:08:29;;;;;;;8.10;4.87;;;;;;;;;;5052237;28;20188;-53
2023/03/01 06:10:57;;;;;;;8.63;5.00;;;;;;;;;;5052153;28;20430;-53
2023/03/01 06:13:23;;;;;;;8.93;5.53;;;;;;;;;;5052108;28;20467;-53
2023/03/01 06:15:49;;;;;;;6.93;4.77;;;;;;;;;;5052106;28;20925;-52
2023/03/01 06:18:15;;;;;;;8.80;5.67;;;;;;;;;;5051323;28;20479;-53
2023/03/01 06:20:41;;;;;;;7.77;5.27;;;;;;;;;;5051918;28;20447;-52
2023/03/01 06:23:07;;;;;;;7.30;5.10;;;;;;;;;;5051847;28;20437;-53
2023/03/01 06:25:33;;;;;;;6.33;4.63;;;;;;;;;;5051785;28;20288;-53
2023/03/01 06:28:01;;;;;;;7.20;5.30;;;;;;;;;;5051802;28;20459;-52
2023/03/01 06:30:27;;;;;;;6.90;4.47;;;;;;;;;;5051794;28;20443;-52
2023/03/01 06:33:00;;;;;;;5.80;4.40;;;;;;;;;;5051691;28;20831;-52
2023/03/01 06:35:29;;;;;;;5.47;4.60;;;;;;;;;;5051712;28;20929;-52
2023/03/01 06:37:55;;;;;;;5.90;4.70;;;;;;;;;;5051429;28;20454;-52
2023/03/01 06:40:22;;;;;;;7.77;5.00;;;;;;;;;;5051793;28;20889;-52
2023/03/01 06:42:49;;;;;;;6.00;4.50;;;;;;;;;;5051814;28;20439;-52
2023/03/01 06:45:17;;;;;;;7.07;4.77;;;;;;;;;;5051416;28;20474;-52
2023/03/01 06:47:43;;;;;;;8.00;4.67;;;;;;;;;;5051482;28;20492;-54
2023/03/01 06:50:09;;;;;;;7.33;4.57;;;;;;;;;;5051558;28;20431;-52
2023/03/01 06:52:35;;;;;;;5.30;4.47;;;;;;;;;;5051589;28;20451;-51
2023/03/01 06:55:02;;;;;;;5.27;4.77;;;;;;;;;;5051457;28;20423;-52
2023/03/01 06:57:28;;;;;;;7.60;5.37;;;;;;;;;;5050894;28;20193;-52
2023/03/01 06:59:54;;;;;;;13.20;7.60;;;;;;;;;;5051668;28;20482;-51
2023/03/01 07:02:21;;;;;;;17.43;9.67;;;;;;;;;;5051822;28;20773;-51
2023/03/01 07:04:49;;;;;;;14.23;6.63;;;;;;;;;;5051741;28;20492;-51
2023/03/01 07:07:15;;;;;;;10.37;6.47;;;;;;;;;;5051639;28;20509;-50
2023/03/01 07:09:41;;;;;;;20.93;11.37;;;;;;;;;;5051667;28;20435;-52
2023/03/01 07:12:07;;;;;;;29.40;13.93;;;;;;;;;;5051645;28;20932;-52
2023/03/01 07:14:33;;;;;;;24.37;13.93;;;;;;;;;;5051523;28;20686;-52
2023/03/01 07:16:59;;;;;;;15.23;9.33;;;;;;;;;;5051460;28;21043;-52
2023/03/01 07:19:27;;;;;;;12.27;7.83;;;;;;;;;;5051343;28;20569;-52
2023/03/01 07:21:53;;;;;;;9.53;6.13;;;;;;;;;;5051600;28;20439;-52
2023/03/01 07:24:19;;;;;;;10.47;6.60;;;;;;;;;;5051496;28;20434;-52
2023/03/01 07:26:49;;;;;;;7.80;6.13;;;;;;;;;;5051561;28;20431;-52
2023/03/01 07:29:15;;;;;;;7.13;5.57;;;;;;;;;;5051228;28;20928;-52
2023/03/01 07:31:41;;;;;;;7.77;6.20;;;;;;;;;;5051624;28;20439;-52
2023/03/01 07:34:07;;;;;;;7.53;6.20;;;;;;;;;;5051487;28;20484;-52
2023/03/01 07:36:34;;;;;;;8.37;5.73;;;;;;;;;;5051365;28;20439;-52
2023/03/01 07:39:02;;;;;;;9.90;7.80;;;;;;;;;;5051233;28;20228;-53
2023/03/01 07:41:28;;;;;;;7.87;6.40;;;;;;;;;;5051293;28;21151;-53
2023/03/01 07:43:54;;;;;;;7.90;6.30;;;;;;;;;;5051296;28;20475;-53
2023/03/01 07:46:20;;;;;;;6.07;5.33;;;;;;;;;;5051312;28;20952;-53
2023/03/01 07:48:46;;;;;;;5.27;4.57;;;;;;;;;;5054264;28;20213;-49
2023/03/01 07:51:12;;;;;;;6.37;5.40;;;;;;;;;;5071110;28;20923;-51
2023/03/01 07:53:39;;;;;;;6.23;5.53;;;;;;;;;;5071052;28;20192;-52
2023/03/01 07:56:06;;;;;;;7.50;5.43;;;;;;;;;;5071102;28;20428;-50
2023/03/01 07:58:34;;;;;;;6.13;5.33;;;;;;;;;;5070678;28;20854;-51
2023/03/01 08:01:02;;;;;;;7.40;5.30;;;;;;;;;;5070703;28;20436;-50
2023/03/01 08:03:28;;;;;;;6.10;4.80;;;;;;;;;;5068846;28;20426;-50
2023/03/01 08:05:54;;;;;;;6.77;5.30;;;;;;;;;;5071186;28;20440;-50
2023/03/01 08:08:20;;;;;;;9.37;5.50;;;;;;;;;;5071050;28;20477;-50
2023/03/01 08:10:47;;;;;;;7.10;5.73;;;;;;;;;;5074632;28;20477;-50
2023/03/01 08:13:13;;;;;;;8.30;5.67;;;;;;;;;;5074365;28;20223;-50
2023/03/01 08:15:39;;;;;;;6.83;5.77;;;;;;;;;;5074501;28;20932;-50
2023/03/01 08:18:06;;;;;;;7.13;5.30;;;;;;;;;;5074528;28;20248;-50
2023/03/01 08:20:32;;;;;;;6.03;4.80;;;;;;;;;;5065857;28;20203;-48
2023/03/01 08:22:58;;;;;;;6.57;4.83;;;;;;;;;;5074534;28;20433;-49
2023/03/01 08:25:24;;;;;;;8.03;5.20;;;;;;;;;;5073996;28;20432;-48
2023/03/01 08:27:51;;;;;;;6.00;5.00;;;;;;;;;;5074400;28;20249;-49
2023/03/01 08:30:18;;;;;;;7.27;5.40;;;;;;;;;;5069521;28;20461;-50
2023/03/01 08:32:44;;;;;;;7.70;5.73;;;;;;;;;;5073817;28;20437;-51
2023/03/01 08:35:10;;;;;;;6.27;5.10;;;;;;;;;;5073835;28;20525;-52
2023/03/01 08:37:36;;;;;;;5.90;4.50;;;;;;;;;;5074093;28;20211;-51
2023/03/01 08:40:04;;;;;;;6.63;4.23;;;;;;;;;;5073709;28;20284;-52
2023/03/01 08:42:30;;;;;;;4.93;4.00;;;;;;;;;;5073369;28;20222;-50
2023/03/01 08:44:57;;;;;;;5.00;4.10;;;;;;;;;;5073525;28;20517;-51
2023/03/01 08:47:23;;;;;;;4.70;4.20;;;;;;;;;;5073045;28;20276;-51
2023/03/01 08:49:50;;;;;;;5.13;3.97;;;;;;;;;;5073962;28;20430;-51
2023/03/01 08:52:16;;;;;;;4.30;3.90;;;;;;;;;;5073504;28;20444;-51
2023/03/01 08:54:42;;;;;;;5.40;3.80;;;;;;;;;;5073296;28;20513;-50
2023/03/01 08:57:09;;;;;;;4.47;3.90;;;;;;;;;;5073708;28;20196;-50
2023/03/01 08:59:37;;;;;;;7.00;4.33;;;;;;;;;;5073296;28;20473;-51
2023/03/01 09:02:04;;;;;;;5.90;4.40;;;;;;;;;;5073390;28;20291;-51
2023/03/01 09:04:30;;;;;;;5.97;4.60;;;;;;;;;;5073248;28;20228;-52
2023/03/01 09:06:56;;;;;;;8.03;3.80;;;;;;;;;;5073083;28;20264;-52
2023/03/01 09:09:22;;;;;;;6.40;4.20;;;;;;;;;;5073161;28;20673;-51
2023/03/01 09:11:49;;;;;;;5.57;4.40;;;;;;;;;;5073303;28;20207;-51
2023/03/01 09:14:16;;;;;;;6.10;3.93;;;;;;;;;;5073036;28;20207;-52
2023/03/01 09:16:42;;;;;;;4.67;4.17;;;;;;;;;;5073101;28;20201;-50
2023/03/01 09:19:09;;;;;;;7.37;4.70;;;;;;;;;;5072819;28;20666;-51
2023/03/01 09:21:35;;;;;;;4.50;3.97;;;;;;;;;;5070469;28;20203;-50
2023/03/01 09:24:01;;;;;;;7.10;4.77;;;;;;;;;;5071619;28;20200;-50
2023/03/01 09:26:27;;;;;;;4.77;4.33;;;;;;;;;;5072730;28;20662;-49
2023/03/01 09:28:54;;;;;;;4.77;4.20;;;;;;;;;;5072906;28;20202;-48
2023/03/01 09:31:21;;;;;;;7.20;3.80;;;;;;;;;;5072486;28;20198;-48
2023/03/01 09:33:48;;;;;;;5.53;3.97;;;;;;;;;;5073007;28;20213;-49
2023/03/01 09:36:16;;;;;;;3.77;3.37;;;;;;;;;;5070760;28;20188;-49
2023/03/01 09:38:42;;;;;;;4.30;3.83;;;;;;;;;;5071121;28;20227;-51
2023/03/01 09:41:10;;;;;;;4.53;3.97;;;;;;;;;;5072984;28;20688;-51
2023/03/01 09:43:41;;;;;;;4.03;3.63;;;;;;;;;;5072801;28;20239;-51
2023/03/01 09:46:09;;;;;;;4.07;3.47;;;;;;;;;;5072840;28;20680;-51
2023/03/01 09:48:41;;;;;;;3.67;3.30;;;;;;;;;;5072765;28;20678;-51
2023/03/01 09:51:09;;;;;;;5.10;3.67;;;;;;;;;;5072946;28;20211;-52
2023/03/01 09:53:36;;;;;;;5.23;3.73;;;;;;;;;;5072665;28;20204;-51
2023/03/01 09:56:05;;;;;;;4.93;3.60;;;;;;;;;;5072678;28;20291;-52
2023/03/01 09:58:52;;;;;;;4.67;3.40;;;;;;;;;;5072421;28;20228;-52
2023/03/01 10:01:27;;;;;;;3.97;3.57;;;;;;;;;;5072483;28;20205;-52
2023/03/01 10:04:00;;;;;;;4.73;3.60;;;;;;;;;;5072607;28;20648;-52
2023/03/01 10:06:26;;;;;;;3.40;3.10;;;;;;;;;;5072511;28;20284;-51
2023/03/01 10:08:55;;;;;;;4.10;3.17;;;;;;;;;;5072589;28;20196;-51
2023/03/01 10:11:22;;;;;;;3.47;3.17;;;;;;;;;;5072461;28;20203;-52
2023/03/01 10:13:52;;;;;;;4.13;2.83;;;;;;;;;;5072139;28;20218;-52
2023/03/01 10:16:21;;;;;;;4.53;3.30;;;;;;;;;;5072111;28;20559;-52
2023/03/01 10:18:52;;;;;;;4.90;3.20;;;;;;;;;;5071900;28;20327;-52
2023/03/01 10:21:19;;;;;;;3.30;2.80;;;;;;;;;;5071872;28;20198;-52
2023/03/01 10:23:46;;;;;;;3.63;2.70;;;;;;;;;;5071947;28;20219;-52
2023/03/01 10:26:22;;;;;;;4.10;2.90;;;;;;;;;;5071892;28;20198;-53
2023/03/01 10:28:54;;;;;;;4.10;2.77;;;;;;;;;;5071998;28;20672;-53
2023/03/01 10:31:22;;;;;;;3.33;3.03;;;;;;;;;;5072003;28;20206;-52
2023/03/01 10:33:54;;;;;;;3.10;2.67;;;;;;;;;;5071022;28;20199;-52
2023/03/01 10:36:20;;;;;;;2.70;2.40;;;;;;;;;;5072005;28;20278;-52
2023/03/01 10:38:52;;;;;;;3.87;2.77;;;;;;;;;;5071700;28;20322;-52
2023/03/01 10:41:19;;;;;;;3.13;2.83;;;;;;;;;;5071671;28;20202;-52
2023/03/01 10:43:46;;;;;;;3.20;2.30;;;;;;;;;;5071563;28;20241;-52
2023/03/01 10:46:22;;;;;;;4.40;2.13;;;;;;;;;;5071590;28;20208;-52
2023/03/01 10:49:05;;;;;;;2.60;2.27;;;;;;;;;;5071761;28;20245;-52
2023/03/01 10:51:31;;;;;;;5.93;2.87;;;;;;;;;;5071592;28;20645;-52
2023/03/01 10:53:57;;;;;;;3.70;2.57;;;;;;;;;;5071525;28;20198;-52
2023/03/01 10:56:25;;;;;;;3.90;2.80;;;;;;;;;;5071650;28;20220;-53
2023/03/01 10:58:58;;;;;;;3.10;2.27;;;;;;;;;;5071708;28;20230;-52
2023/03/01 11:01:27;;;;;;;2.80;2.33;;;;;;;;;;5071649;28;20194;-52
2023/03/01 11:04:09;;;;;;;2.77;2.27;;;;;;;;;;5071578;28;20264;-53
2023/03/01 11:06:36;;;;;;;3.53;2.80;;;;;;;;;;5071512;28;20248;-52
2023/03/01 11:09:14;;;;;;;2.90;2.60;;;;;;;;;;5071533;28;20403;-52
2023/03/01 11:11:41;;;;;;;4.27;2.60;;;;;;;;;;5071410;28;20211;-53
2023/03/01 11:14:13;;;;;;;3.47;2.40;;;;;;;;;;5071369;28;20227;-52
2023/03/01 11:16:40;;;;;;;4.07;2.60;;;;;;;;;;5071208;28;20187;-54
2023/03/01 11:19:15;;;;;;;2.53;2.20;;;;;;;;;;5071428;28;20258;-54
2023/03/01 11:21:42;;;;;;;2.87;2.50;;;;;;;;;;5068097;28;20610;-52
2023/03/01 11:24:10;;;;;;;4.10;2.57;;;;;;;;;;5068603;28;20230;-50
2023/03/01 11:26:39;;;;;;;3.23;2.93;;;;;;;;;;5071208;28;20195;-51
2023/03/01 11:29:07;;;;;;;2.60;2.40;;;;;;;;;;5071038;28;20208;-53
2023/03/01 11:31:34;;;;;;;4.03;2.70;;;;;;;;;;5070932;28;20210;-51
2023/03/01 11:34:03;;;;;;;2.97;2.60;;;;;;;;;;5071026;28;20257;-51
2023/03/01 11:36:31;;;;;;;3.13;2.43;;;;;;;;;;5071143;28;20202;-51
2023/03/01 11:39:02;;;;;;;2.83;2.50;;;;;;;;;;5070859;28;20693;-51
2023/03/01 11:41:30;;;;;;;2.87;2.60;;;;;;;;;;5068054;28;20195;-51
2023/03/01 11:44:00;;;;;;;3.70;2.60;;;;;;;;;;5051401;28;20257;-50
2023/03/01 11:46:56;;;;;;;4.93;2.60;;;;;;;;;;5054739;28;20626;-51
2023/03/01 11:49:33;;;;;;;2.37;2.10;;;;;;;;;;4973873;28;20690;-51
2023/03/01 11:52:03;;;;;;;2.87;2.33;;;;;;;;;;5037378;28;20360;-53
2023/03/01 11:54:35;;;;;;;2.40;2.20;;;;;;;;;;5055089;28;20254;-53
2023/03/01 11:57:04;;;;;;;2.60;2.13;;;;;;;;;;5055284;28;20199;-53
2023/03/01 11:59:37;;;;;;;3.70;2.27;;;;;;;;;;5055024;28;20393;-53
2023/03/01 12:02:20;;;;;;;2.40;2.00;;;;;;;;;;5055090;28;20207;-53
2023/03/01 12:05:00;;;;;;;2.83;2.17;;;;;;;;;;5055040;28;20211;-52
2023/03/01 12:07:30;;;;;;;2.53;2.30;;;;;;;;;;5054969;28;20196;-51
2023/03/01 12:10:11;;;;;;;2.37;2.10;;;;;;;;;;5054884;28;20219;-53
2023/03/01 12:12:43;;;;;;;2.10;1.90;;;;;;;;;;5054773;28;20204;-53
2023/03/01 12:15:26;;;;;;;2.40;2.20;;;;;;;;;;5054922;28;20250;-53
2023/03/01 12:18:04;;;;;;;3.07;2.30;;;;;;;;;;5054856;28;20196;-53
2023/03/01 12:20:36;;;;;;;2.90;2.40;;;;;;;;;;5054637;28;20223;-52
2023/03/01 12:23:21;;;;;;;2.97;2.30;;;;;;;;;;5054627;28;20220;-53
2023/03/01 12:25:49;;;;;;;2.27;2.07;;;;;;;;;;5054594;28;20200;-53
2023/03/01 12:28:30;;;;;;;2.83;2.37;;;;;;;;;;5054449;28;20196;-53
2023/03/01 12:31:13;;;;;;;2.40;2.20;;;;;;;;;;5054439;28;20210;-53
2023/03/01 12:33:45;;;;;;;2.90;2.30;;;;;;;;;;5054438;28;20645;-53
2023/03/01 12:36:19;;;;;;;3.27;2.07;;;;;;;;;;5054368;28;20230;-53
2023/03/01 12:38:50;;;;;;;2.97;2.50;;;;;;;;;;5054087;28;20650;-53
2023/03/01 12:41:31;;;;;;;3.33;2.40;;;;;;;;;;5054360;28;20278;-53
2023/03/01 12:44:01;;;;;;;3.20;2.50;;;;;;;;;;5050830;28;20240;-53
2023/03/01 12:46:33;;;;;;;2.43;2.20;;;;;;;;;;5054079;28;20196;-53
2023/03/01 12:49:03;;;;;;;2.70;2.33;;;;;;;;;;5054220;28;20250;-53
2023/03/01 12:51:31;;;;;;;3.10;2.30;;;;;;;;;;5054039;28;20192;-53
2023/03/01 12:53:59;;;;;;;2.40;2.20;;;;;;;;;;5054084;28;20654;-53
2023/03/01 12:56:27;;;;;;;2.57;2.37;;;;;;;;;;5052941;28;20603;-52
2023/03/01 12:58:58;;;;;;;2.67;2.20;;;;;;;;;;5053953;28;20327;-52
2023/03/01 13:01:30;;;;;;;2.50;2.10;;;;;;;;;;5053945;28;20287;-54
2023/03/01 13:04:03;;;;;;;3.33;2.43;;;;;;;;;;5054004;28;20192;-52
2023/03/01 13:06:37;;;;;;;5.73;5.13;;;;;;;;;;5053858;28;20206;-52
2023/03/01 13:09:06;;;;;;;3.40;2.47;;;;;;;;;;5053884;28;20583;-53
2023/03/01 13:11:34;;;;;;;2.53;2.27;;;;;;;;;;5053607;28;20576;-53
2023/03/01 13:14:15;;;;;;;3.23;2.23;;;;;;;;;;5053728;28;20277;-53
2023/03/01 13:16:48;;;;;;;2.60;2.30;;;;;;;;;;5050944;28;20203;-53
2023/03/01 13:19:16;;;;;;;2.97;2.67;;;;;;;;;;5053403;28;20228;-53
2023/03/01 13:21:44;;;;;;;2.30;2.10;;;;;;;;;;5053628;28;20207;-53
2023/03/01 13:24:27;;;;;;;3.00;2.67;;;;;;;;;;5053463;28;20666;-53
2023/03/01 13:27:29;;;;;;;3.00;2.37;;;;;;;;;;5053615;28;20282;-53
2023/03/01 13:29:55;;;;;;;2.43;2.17;;;;;;;;;;4972650;28;20203;-52
2023/03/01 13:32:22;;;;;;;3.97;2.70;;;;;;;;;;4972517;28;20203;-52
2023/03/01 13:34:50;;;;;;;3.60;2.37;;;;;;;;;;5008027;28;20192;-52
2023/03/01 13:37:21;;;;;;;3.13;2.50;;;;;;;;;;5053026;28;20200;-52
2023/03/01 13:39:47;;;;;;;3.67;3.00;;;;;;;;;;5053159;28;20736;-53
2023/03/01 13:42:31;;;;;;;4.27;3.13;;;;;;;;;;5052937;28;20200;-53
2023/03/01 13:44:57;;;;;;;2.60;2.40;;;;;;;;;;5052779;28;20232;-52
2023/03/01 13:47:23;;;;;;;2.40;2.20;;;;;;;;;;5052747;28;20196;-53
2023/03/01 13:49:53;;;;;;;2.93;2.53;;;;;;;;;;5052998;28;20227;-53
2023/03/01 13:52:37;;;;;;;3.67;2.43;;;;;;;;;;5052786;28;20258;-53
2023/03/01 13:55:04;;;;;;;2.80;2.50;;;;;;;;;;5052792;28;20733;-53
2023/03/01 13:57:33;;;;;;;3.23;2.47;;;;;;;;;;5052793;28;20204;-53
2023/03/01 13:59:59;;;;;;;4.47;2.47;;;;;;;;;;5052418;28;20228;-52
2023/03/01 14:02:25;;;;;;;4.33;2.70;;;;;;;;;;5052483;28;20257;-53
2023/03/01 14:04:57;;;;;;;4.87;3.00;;;;;;;;;;5052696;28;20261;-52
2023/03/01 14:07:24;;;;;;;2.50;2.30;;;;;;;;;;5052224;28;20196;-51
2023/03/01 14:09:53;;;;;;;4.00;2.80;;;;;;;;;;5052405;28;20192;-52
2023/03/01 14:12:37;;;;;;;4.40;3.10;;;;;;;;;;5052386;28;20207;-52
2023/03/01 14:15:06;;;;;;;3.80;3.27;;;;;;;;;;5052395;28;20216;-53
2023/03/01 14:17:45;;;;;;;3.20;2.60;;;;;;;;;;5052066;28;20245;-53
2023/03/01 14:20:13;;;;;;;2.90;2.53;;;;;;;;;;5052335;28;20308;-53
2023/03/01 14:22:41;;;;;;;4.20;3.03;;;;;;;;;;5052067;28;20231;-53
2023/03/01 14:25:17;;;;;;;2.97;2.60;;;;;;;;;;5052288;28;20200;-53
2023/03/01 14:27:44;;;;;;;5.37;3.13;;;;;;;;;;5052016;28;20214;-53
2023/03/01 14:30:13;;;;;;;4.63;2.80;;;;;;;;;;5052029;28;20616;-51
2023/03/01 14:32:39;;;;;;;2.67;2.30;;;;;;;;;;5051910;28;20279;-54
2023/03/01 14:35:20;;;;;;;2.93;2.10;;;;;;;;;;5052113;28;20705;-53
2023/03/01 14:37:46;;;;;;;2.43;2.23;;;;;;;;;;5051574;28;20199;-51
2023/03/01 14:40:19;;;;;;;2.50;2.00;;;;;;;;;;5051792;28;20657;-51
2023/03/01 14:42:46;;;;;;;2.30;2.00;;;;;;;;;;5051802;28;20204;-52
2023/03/01 14:45:13;;;;;;;2.13;1.93;;;;;;;;;;5051480;28;20243;-53
2023/03/01 14:47:39;;;;;;;2.67;2.40;;;;;;;;;;5049814;28;20196;-52
2023/03/01 14:50:07;;;;;;;2.20;2.00;;;;;;;;;;5051822;28;20223;-53
2023/03/01 14:52:35;;;;;;;3.40;2.10;;;;;;;;;;5051710;28;20208;-53